Dobrodošli na spletni strani vremenske postaje Senovo. Vse informacije so informativnega značaja, saj vremenska postaja ni del državne mreže meteoroloških postaj. AKTUALNIH OBVESTIL NI.


Sneg/Led Od: 21-02-2018 00:00 Do: 23-02-2018 23:59 Opozorilo za: Sneg/Led Stopnja: Rumena info button
Veter Od: 21-02-2018 00:00 Do: 22-02-2018 23:59 Opozorilo za: Veter Stopnja: Rumena info button

Pogled proti Armezu več informacij Pogled proti Armezu


Lisca več informacij Lisca


Radar strel več informacij blitzortung!


opozorilo za sneg/led več informacij rain snow radar


Obiščite še:

Template documentation
and downloads

And another site



Weather Underground, zgodovina - Tekstovno

Dnevni povzetek za Marc 25, 2017 Enote:  Metrično    Angleško   Obe
« Predhodni Dan
Naslednji Dan »
Dnevni Tedenski Mesečni Letni Po meri
  Višja: Nižja: Povprečje:
Temperatura: -17.8 °C -15.9 °C -12.4 °C
Točka rosišča: -17.8 °C -18.1 °C -16.8 °C
Vlažnost: Humidity % 38 % 60 %
Hitrost vetra: 0 km/h 0 km/h 4.5 km/h
Sunki vetra: 0 km/h - -
Veter:- - SSE
Zračni tlak: 0 hPa 34496.6 hPa -
Padavine: 0 mm    
Historical Graphs
 
 
Tabelarni podarki za Marc 25, 2017
Čas Temperatura Točka rosišča Zračni tlak Veter Hitrost vetra Sunki vetra Vlažnost Intenziteta padavin (urna)
-17.8 °C -17.8 °C 0 hPa Calm     Humidity % 0 mm
00:00 -12.2 °C -16.8 °C 34740.4 hPa SE 6.9 km/h 14.5 km/h 56 % 0 mm
00:05 -12.3 °C -16.8 °C 34774.2 hPa SSE 6 km/h 15.6 km/h 57 % 0 mm
00:10 -12.3 °C -16.7 °C 34774.2 hPa South 7.6 km/h 15.6 km/h 58 % 0 mm
00:15 -12.4 °C -16.8 °C 34774.2 hPa South 8.5 km/h 14.5 km/h 58 % 0 mm
00:20 -12.6 °C -16.8 °C 34740.4 hPa SSW 6.9 km/h 11.1 km/h 59 % 0 mm
00:25 -12.6 °C -16.8 °C 34740.4 hPa SSW 5 km/h 9.3 km/h 59 % 0 mm
00:30 -12.7 °C -16.8 °C 34740.4 hPa SSW 2.3 km/h 7.6 km/h 60 % 0 mm
00:35 -12.7 °C -16.8 °C 34740.4 hPa SSW 3.1 km/h 11.1 km/h 60 % 0 mm
00:40 -12.9 °C -16.9 °C 34740.4 hPa SW 2.6 km/h 11.1 km/h 61 % 0 mm
00:46 -13.1 °C -16.9 °C 34740.4 hPa NW 0.3 km/h 5.6 km/h 62 % 0 mm
00:51 -13.1 °C -16.8 °C 34774.2 hPa West 0.3 km/h 3.4 km/h 63 % 0 mm
00:56 -13.3 °C -16.9 °C 34774.2 hPa West 0.5 km/h 4.2 km/h 63 % 0 mm
01:01 -13.4 °C -16.8 °C 34774.2 hPa WNW 1.3 km/h 5.6 km/h 65 % 0 mm
01:06 -13.5 °C -16.8 °C 34740.4 hPa WNW 2.1 km/h 6.4 km/h 66 % 0 mm
01:11 -13.6 °C -16.8 °C 34740.4 hPa WNW 2.9 km/h 6.9 km/h 66 % 0 mm
01:16 -13.6 °C -16.9 °C 34740.4 hPa WNW 2.3 km/h 6.9 km/h 66 % 0 mm
01:21 -13.7 °C -16.8 °C 34740.4 hPa WNW 0.3 km/h 2.9 km/h 67 % 0 mm
01:26 -13.8 °C -16.8 °C 34740.4 hPa Calm     68 % 0 mm
01:31 -13.9 °C -16.8 °C 34740.4 hPa Calm     69 % 0 mm
01:36 -13.9 °C -16.8 °C 34740.4 hPa Calm     69 % 0 mm
01:41 -14 °C -16.9 °C 34740.4 hPa Calm     69 % 0 mm
01:46 -14.1 °C -16.9 °C 34740.4 hPa Calm     70 % 0 mm
01:51 -14.2 °C -16.9 °C 34740.4 hPa Calm   4.2 km/h 71 % 0 mm
01:56 -14.2 °C -16.9 °C 34740.4 hPa SW 0.8 km/h 6.9 km/h 71 % 0 mm
02:01 -14.3 °C -17 °C 34740.4 hPa SW 0.8 km/h 6.9 km/h 71 % 0 mm
02:06 -14.3 °C -16.9 °C 34740.4 hPa Calm     72 % 0 mm
02:11 -14.4 °C -17 °C 34740.4 hPa Calm     72 % 0 mm
02:16 -14.4 °C -17.1 °C 34740.4 hPa Calm     72 % 0 mm
02:21 -14.4 °C -16.9 °C 34740.4 hPa Calm     73 % 0 mm
02:26 -14.5 °C -16.9 °C 34740.4 hPa WNW 0.5 km/h 6.9 km/h 74 % 0 mm
02:31 -14.6 °C -16.9 °C 34740.4 hPa WNW 0.5 km/h 6.9 km/h 74 % 0 mm
02:36 -14.6 °C -16.9 °C 34740.4 hPa Calm     74 % 0 mm
02:41 -14.6 °C -17 °C 34740.4 hPa Calm     74 % 0 mm
02:46 -14.7 °C -16.9 °C 34740.4 hPa WNW 0.3 km/h 4.2 km/h 75 % 0 mm
02:51 -14.7 °C -17 °C 34740.4 hPa WNW 0.3 km/h 4.2 km/h 75 % 0 mm
02:56 -14.8 °C -17.1 °C 34740.4 hPa Calm     75 % 0 mm
03:01 -14.8 °C -17.1 °C 34740.4 hPa Calm     75 % 0 mm
03:06 -14.8 °C -17 °C 34703.1 hPa WNW 0.5 km/h 6.4 km/h 76 % 0 mm
03:11 -14.9 °C -17.1 °C 34703.1 hPa WNW 0.5 km/h 6.4 km/h 76 % 0 mm
03:16 -14.9 °C -17.1 °C 34703.1 hPa Calm     76 % 0 mm
03:21 -15 °C -17.2 °C 34740.4 hPa WNW 0.3 km/h 4.2 km/h 76 % 0 mm
03:26 -15 °C -17.1 °C 34740.4 hPa WNW 1 km/h 7.6 km/h 77 % 0 mm
03:31 -15 °C -17.1 °C 34740.4 hPa WNW 3.1 km/h 8 km/h 77 % 0 mm
03:36 -15 °C -17.1 °C 34740.4 hPa WNW 2.9 km/h 8 km/h 77 % 0 mm
03:41 -15.1 °C -17 °C 34740.4 hPa WNW 0.8 km/h 5.6 km/h 78 % 0 mm
03:46 -15.1 °C -17.1 °C 34740.4 hPa Calm   2.9 km/h 78 % 0 mm
03:51 -15.1 °C -17.1 °C 34774.2 hPa WNW 0.3 km/h 5.1 km/h 78 % 0 mm
03:57 -15.2 °C -17.1 °C 34774.2 hPa WNW 0.3 km/h 5.1 km/h 78 % 0 mm
04:02 -15.2 °C -17.2 °C 34774.2 hPa Calm     78 % 0 mm
04:07 -15.3 °C -17.2 °C 34774.2 hPa Calm     78 % 0 mm
04:09 -15.3 °C -17.3 °C 34774.2 hPa Calm     78 % 0 mm
04:14 -15.4 °C -17.2 °C 34774.2 hPa Calm     79 % 0 mm
04:19 -15.4 °C -17.2 °C 34740.4 hPa Calm     79 % 0 mm
04:24 -15.4 °C -17.3 °C 34740.4 hPa Calm     79 % 0 mm
04:29 -15.5 °C -17.3 °C 34740.4 hPa WNW 1 km/h 6.4 km/h 80 % 0 mm
04:34 -15.6 °C -17.4 °C 34740.4 hPa NW 1.3 km/h 6.4 km/h 79 % 0 mm
04:39 -15.6 °C -17.3 °C 34740.4 hPa NNW 1.6 km/h 6.4 km/h 80 % 0 mm
04:44 -15.6 °C -17.3 °C 34740.4 hPa NNW 1.6 km/h 6.4 km/h 81 % 0 mm
04:49 -15.6 °C -17.2 °C 34740.4 hPa NNW 1.6 km/h 9.8 km/h 81 % 0 mm
04:54 -15.6 °C -17.1 °C 34740.4 hPa NNW 1.6 km/h 9.8 km/h 82 % 0 mm
04:59 -15.5 °C -17 °C 34740.4 hPa NNE 0.5 km/h 5.6 km/h 83 % 0 mm
05:04 -15.5 °C -17 °C 34740.4 hPa NNE 0.8 km/h 6.4 km/h 83 % 0 mm
05:09 -15.5 °C -17 °C 34740.4 hPa NNE 0.8 km/h 6.4 km/h 83 % 0 mm
05:14 -15.5 °C -17 °C 34740.4 hPa NNW 1.6 km/h 10.3 km/h 83 % 0 mm
05:19 -15.5 °C -17 °C 34774.2 hPa NW 4.3 km/h 11.1 km/h 83 % 0 mm
05:24 -15.6 °C -16.9 °C 34774.2 hPa NNW 4.7 km/h 11.1 km/h 84 % 0 mm
05:29 -15.6 °C -16.9 °C 34774.2 hPa WNW 4.2 km/h 11.1 km/h 84 % 0 mm
05:34 -15.5 °C -16.9 °C 34740.4 hPa WNW 5 km/h 11.1 km/h 84 % 0 mm
05:39 -15.6 °C -16.9 °C 34740.4 hPa NW 2.6 km/h 6.9 km/h 84 % 0 mm
05:44 -15.7 °C -17.1 °C 34740.4 hPa NW 1.3 km/h 6.4 km/h 84 % 0 mm
05:49 -15.6 °C -17 °C 34703.1 hPa NW 3.4 km/h 8 km/h 84 % 0 mm
05:54 -15.6 °C -17 °C 34703.1 hPa NW 3.7 km/h 8 km/h 84 % 0 mm
06:00 -15.6 °C -17 °C 34703.1 hPa WNW 0.8 km/h 5.6 km/h 84 % 0 mm
06:04 -15.7 °C -17.1 °C 34703.1 hPa Calm     84 % 0 mm
06:10 -15.7 °C -17.1 °C 34703.1 hPa Calm     84 % 0 mm
06:15 -15.7 °C -17.1 °C 34703.1 hPa Calm     84 % 0 mm
06:20 -15.7 °C -17.1 °C 34703.1 hPa Calm   2.9 km/h 84 % 0 mm
06:25 -15.7 °C -17.1 °C 34703.1 hPa NNW 0.8 km/h 5.6 km/h 84 % 0 mm
06:30 -15.6 °C -17 °C 34703.1 hPa West 2.3 km/h 6.9 km/h 84 % 0 mm
06:35 -15.6 °C -17 °C 34740.4 hPa SW 1.6 km/h 6.9 km/h 84 % 0 mm
06:40 -15.5 °C -16.9 °C 34740.4 hPa Calm   2.3 km/h 84 % 0 mm
06:42 -15.5 °C -16.9 °C 34740.4 hPa Calm   2.3 km/h 84 % 0 mm
06:47 -15.4 °C -16.8 °C 34740.4 hPa Calm     84 % 0 mm
06:52 -15.3 °C -16.6 °C 34740.4 hPa Calm     85 % 0 mm
06:57 -15.2 °C -16.5 °C 34740.4 hPa Calm     85 % 0 mm
07:02 -15.1 °C -16.3 °C 34740.4 hPa Calm     85 % 0 mm
07:07 -14.9 °C -16.2 °C 34774.2 hPa NNW 1 km/h 7.6 km/h 85 % 0 mm
07:12 -14.7 °C -15.9 °C 34774.2 hPa NNW 1 km/h 7.6 km/h 85 % 0 mm
07:17 -14.6 °C -16 °C 34774.2 hPa Calm     84 % 0 mm
07:22 -14.4 °C -15.8 °C 34774.2 hPa Calm     84 % 0 mm
07:27 -14.2 °C -15.7 °C 34774.2 hPa SW 0.3 km/h 3.4 km/h 83 % 0 mm
07:28 -14.2 °C -15.7 °C 34774.2 hPa SSW 0.5 km/h 6.9 km/h 83 % 0 mm
07:33 -13.9 °C -15.5 °C 34774.2 hPa South 1.3 km/h 6.9 km/h 82 % 0 mm
07:38 -13.7 °C -15.5 °C 34774.2 hPa SE 4.7 km/h 19.2 km/h 80 % 0 mm
07:43 -13.5 °C -15.5 °C 34774.2 hPa ESE 10.3 km/h 22 km/h 78 % 0 mm
07:48 -13.3 °C -15.6 °C 34774.2 hPa ESE 12.9 km/h 22 km/h 76 % 0 mm
07:53 -13.2 °C -15.6 °C 34774.2 hPa SE 11.4 km/h 19.2 km/h 74 % 0 mm
07:58 -13.1 °C -15.7 °C 34774.2 hPa ESE 10.9 km/h 15 km/h 72 % 0 mm
08:03 -12.9 °C -15.6 °C 34774.2 hPa ESE 9.7 km/h 15.6 km/h 72 % 0 mm
08:08 -12.8 °C -16.1 °C 34774.2 hPa East 8.9 km/h 16.9 km/h 66 % 0 mm
08:13 -12.6 °C -15.8 °C 34774.2 hPa East 8.5 km/h 16.9 km/h 67 % 0 mm
08:18 -12.6 °C -15.8 °C 34774.2 hPa ESE 9.3 km/h 16.9 km/h 67 % 0 mm
08:23 -12.4 °C -15.8 °C 34774.2 hPa ESE 9.7 km/h 16.9 km/h 66 % 0 mm
08:28 -12.4 °C -15.9 °C 34774.2 hPa ESE 7.7 km/h 15 km/h 65 % 0 mm
08:33 -12.3 °C -15.8 °C 34774.2 hPa ESE 9 km/h 19.2 km/h 65 % 0 mm
08:38 -12.2 °C -16.1 °C 34774.2 hPa ESE 9.7 km/h 19.2 km/h 62 % 0 mm
08:43 -12.1 °C -15.9 °C 34774.2 hPa ESE 8.9 km/h 16.9 km/h 63 % 0 mm
08:49 -12.1 °C -16.1 °C 34774.2 hPa ESE 9.7 km/h 16.9 km/h 61 % 0 mm
08:54 -12 °C -16 °C 34774.2 hPa ESE 10.9 km/h 19.2 km/h 61 % 0 mm
08:59 -11.9 °C -16.1 °C 34774.2 hPa ESE 11.9 km/h 20.9 km/h 60 % 0 mm
09:04 -11.9 °C -16 °C 34774.2 hPa ESE 10.1 km/h 20.9 km/h 60 % 0 mm
09:09 -11.9 °C -16.2 °C 34774.2 hPa ESE 6.9 km/h 15 km/h 59 % 0 mm
09:14 -11.8 °C -16.1 °C 34774.2 hPa SE 6.8 km/h 11.1 km/h 59 % 0 mm
09:19 -11.8 °C -16.2 °C 34740.4 hPa SE 7.7 km/h 12.7 km/h 58 % 0 mm
09:24 -11.7 °C -16.2 °C 34740.4 hPa ESE 8.2 km/h 14.5 km/h 58 % 0 mm
09:29 -11.7 °C -16.2 °C 34740.4 hPa ESE 8.2 km/h 16.9 km/h 57 % 0 mm
09:34 -11.5 °C -16.2 °C 34740.4 hPa ESE 10.3 km/h 17.9 km/h 56 % 0 mm
09:39 -11.4 °C -16.2 °C 34740.4 hPa ESE 11.9 km/h 19.6 km/h 55 % 0 mm
09:40 -11.3 °C -16.3 °C 34740.4 hPa East 12.2 km/h 19.6 km/h 54 % 0 mm
09:45 -11.3 °C -16.6 °C 34740.4 hPa East 11.9 km/h 19.6 km/h 52 % 0 mm
09:50 -11.2 °C -16.4 °C 34740.4 hPa ESE 12.9 km/h 22 km/h 53 % 0 mm
09:55 -11.1 °C -16.4 °C 34740.4 hPa ESE 14 km/h 23 km/h 52 % 0 mm
10:00 -11.1 °C -16.3 °C 34740.4 hPa ESE 14 km/h 23 km/h 52 % 0 mm
10:01 -11.1 °C -16.3 °C 34740.4 hPa ESE 14.2 km/h 23 km/h 52 % 0 mm
10:06 -10.9 °C -16.3 °C 34740.4 hPa ESE 14 km/h 22.5 km/h 52 % 0 mm
10:11 -10.9 °C -16.5 °C 34740.4 hPa ESE 12.2 km/h 20.3 km/h 50 % 0 mm
10:16 -10.8 °C -16.5 °C 34740.4 hPa East 10.1 km/h 20.3 km/h 50 % 0 mm
10:21 -10.7 °C -16.3 °C 34740.4 hPa East 9 km/h 22 km/h 50 % 0 mm
10:26 -10.6 °C -16.2 °C 34740.4 hPa ESE 9.8 km/h 22 km/h 50 % 0 mm
10:31 -10.4 °C -16.3 °C 34740.4 hPa East 10.6 km/h 16.3 km/h 49 % 0 mm
10:41 -10.3 °C -16.2 °C 34740.4 hPa ESE 12.7 km/h 22 km/h 49 % 0 mm
10:46 -10.3 °C -16.5 °C 34740.4 hPa ESE 11.4 km/h 19.6 km/h 47 % 0 mm
10:51 -10.3 °C -16.3 °C 34740.4 hPa ESE 9.8 km/h 19.2 km/h 48 % 0 mm
10:56 -10.2 °C -16.2 °C 34740.4 hPa ESE 8 km/h 19.2 km/h 48 % 0 mm
11:01 -10.1 °C -16.2 °C 34740.4 hPa East 9.8 km/h 17.4 km/h 48 % 0 mm
11:06 -10.1 °C -16.1 °C 34703.1 hPa East 11.4 km/h 17.4 km/h 48 % 0 mm
11:11 -10.1 °C -16.2 °C 34703.1 hPa ESE 11.6 km/h 22 km/h 47 % 0 mm
11:16 -10 °C -16.2 °C 34703.1 hPa East 11.6 km/h 22 km/h 47 % 0 mm
11:21 -9.9 °C -16.2 °C 34703.1 hPa ESE 10.6 km/h 20.3 km/h 47 % 0 mm
11:26 -9.8 °C -16.1 °C 34703.1 hPa ESE 11.9 km/h 19.2 km/h 47 % 0 mm
11:31 -9.8 °C -16 °C 34703.1 hPa ESE 11.1 km/h 19.2 km/h 47 % 0 mm
11:36 -9.6 °C -15.8 °C 34703.1 hPa East 10.3 km/h 16.9 km/h 47 % 0 mm
11:41 -9.6 °C -16.2 °C 34703.1 hPa East 10.6 km/h 19.6 km/h 45 % 0 mm
11:46 -9.6 °C -16.2 °C 34703.1 hPa East 10.9 km/h 19.6 km/h 45 % 0 mm
11:51 -9.4 °C -16 °C 34703.1 hPa ESE 12.2 km/h 18.7 km/h 45 % 0 mm
11:56 -9.5 °C -16.1 °C 34703.1 hPa East 13.2 km/h 20.3 km/h 45 % 0 mm
12:01 -9.3 °C -15.9 °C 34703.1 hPa East 13.7 km/h 20.3 km/h 45 % 0 mm
12:06 -9.2 °C -16 °C 34669.3 hPa ESE 12.2 km/h 17.4 km/h 44 % 0 mm
12:12 -9.2 °C -16 °C 34669.3 hPa East 10.9 km/h 17.4 km/h 44 % 0 mm
12:17 -9.2 °C -16 °C 34669.3 hPa ENE 9.8 km/h 24.8 km/h 44 % 0 mm
12:22 -9.4 °C -16.7 °C 34669.3 hPa ENE 11.4 km/h 24.8 km/h 41 % 0 mm
12:27 -9.3 °C -16.3 °C 34669.3 hPa ENE 11.4 km/h 20.3 km/h 43 % 0 mm
12:32 -9.3 °C -16.4 °C 34669.3 hPa ENE 10.6 km/h 16.3 km/h 42 % 0 mm
12:37 -9.1 °C -16.1 °C 34635.4 hPa East 9 km/h 16.3 km/h 43 % 0 mm
12:42 -9.1 °C -16 °C 34635.4 hPa East 9 km/h 19.6 km/h 43 % 0 mm
12:47 -9.1 °C -16.2 °C 34635.4 hPa ENE 9.3 km/h 20.3 km/h 42 % 0 mm
12:52 -9 °C -16.2 °C 34669.3 hPa ENE 9.3 km/h 20.3 km/h 42 % 0 mm
12:57 -9 °C -16.2 °C 34669.3 hPa ENE 8.9 km/h 18.7 km/h 42 % 0 mm
13:02 -8.9 °C -16.1 °C 34669.3 hPa NE 6.8 km/h 14.5 km/h 42 % 0 mm
13:07 -8.7 °C -15.9 °C 34669.3 hPa East 5.5 km/h 12.7 km/h 42 % 0 mm
13:12 -8.6 °C -15.8 °C 34669.3 hPa ESE 5.6 km/h 12.2 km/h 42 % 0 mm
13:17 -8.5 °C -15.5 °C 34669.3 hPa ESE 7.2 km/h 14 km/h 43 % 0 mm
13:22 -8.3 °C -15.5 °C 34635.4 hPa SSE 10.3 km/h 19.6 km/h 42 % 0 mm
13:27 -8.2 °C -15.4 °C 34635.4 hPa South 9.7 km/h 19.6 km/h 42 % 0 mm
13:32 -8.2 °C -15.4 °C 34635.4 hPa SE 6.8 km/h 11.1 km/h 42 % 0 mm
13:37 -8.2 °C -15.7 °C 34635.4 hPa SSE 8.2 km/h 19.2 km/h 41 % 0 mm
13:42 -8.1 °C -15.4 °C 34635.4 hPa SSE 10.3 km/h 20.9 km/h 42 % 0 mm
13:47 -8.1 °C -15.7 °C 34635.4 hPa East 9.3 km/h 20.9 km/h 40 % 0 mm
13:52 -8.2 °C -15.8 °C 34601.5 hPa East 7.6 km/h 15 km/h 40 % 0 mm
13:57 -8.1 °C -15.5 °C 34601.5 hPa East 9 km/h 15.6 km/h 41 % 0 mm
14:02 -7.9 °C -15.4 °C 34601.5 hPa ESE 9.8 km/h 15.6 km/h 41 % 0 mm
14:07 -7.8 °C -15.3 °C 34601.5 hPa ESE 8.2 km/h 15 km/h 41 % 0 mm
14:12 -8.1 °C -15.7 °C 34601.5 hPa East 9.7 km/h 15.6 km/h 40 % 0 mm
14:17 -8.1 °C -15.7 °C 34601.5 hPa ENE 9 km/h 15.6 km/h 40 % 0 mm
14:22 -8.1 °C -15.7 °C 34601.5 hPa NE 8.5 km/h 14.5 km/h 40 % 0 mm
14:27 -8.2 °C -16 °C 34601.5 hPa ENE 9.3 km/h 14.5 km/h 39 % 0 mm
14:32 -8.1 °C -15.7 °C 34601.5 hPa ENE 7.6 km/h 14.5 km/h 40 % 0 mm
14:33 -8.1 °C -15.7 °C 34601.5 hPa ENE 7.6 km/h 14.5 km/h 40 % 0 mm
14:38 -8.1 °C -15.7 °C 34601.5 hPa East 6.9 km/h 15 km/h 40 % 0 mm
14:43 -8.2 °C -16 °C 34601.5 hPa East 8.2 km/h 15 km/h 39 % 0 mm
14:48 -8.2 °C -16.1 °C 34601.5 hPa ENE 10.1 km/h 16.3 km/h 39 % 0 mm
14:53 -8.2 °C -16.1 °C 34601.5 hPa ENE 9.8 km/h 16.3 km/h 39 % 0 mm
14:58 -8.3 °C -16.1 °C 34601.5 hPa NE 10.6 km/h 26.2 km/h 39 % 0 mm
15:03 -8.3 °C -16.2 °C 34601.5 hPa ENE 12.4 km/h 26.2 km/h 39 % 0 mm
15:08 -8.2 °C -16.1 °C 34601.5 hPa ENE 9.3 km/h 20.3 km/h 39 % 0 mm
15:13 -8.3 °C -16.3 °C 34601.5 hPa ENE 9 km/h 20.9 km/h 38 % 0 mm
15:18 -8.3 °C -16.3 °C 34567.7 hPa ENE 10.9 km/h 20.9 km/h 38 % 0 mm
15:22 -8.4 °C -16.4 °C 34567.7 hPa ENE 11.9 km/h 20.9 km/h 38 % 0 mm
15:28 -8.4 °C -16.2 °C 34567.7 hPa ENE 12.2 km/h 20.9 km/h 39 % 0 mm
15:33 -8.3 °C -16.2 °C 34567.7 hPa East 10.6 km/h 19.2 km/h 39 % 0 mm
15:38 -8.3 °C -16.1 °C 34567.7 hPa ESE 10.3 km/h 17.4 km/h 39 % 0 mm
15:43 -8.2 °C -16.1 °C 34567.7 hPa ESE 10.1 km/h 18.7 km/h 39 % 0 mm
15:48 -8.2 °C -16.1 °C 34567.7 hPa ESE 9 km/h 18.7 km/h 39 % 0 mm
15:53 -8.2 °C -16.1 °C 34567.7 hPa ESE 9 km/h 16.3 km/h 39 % 0 mm
15:58 -8.2 °C -16.1 °C 34567.7 hPa ESE 9 km/h 14.5 km/h 39 % 0 mm
16:03 -8.3 °C -16.1 °C 34567.7 hPa East 7.7 km/h 14.5 km/h 39 % 0 mm
16:08 -8.4 °C -16.2 °C 34533.8 hPa East 7.7 km/h 11.1 km/h 39 % 0 mm
16:13 -8.4 °C -16.2 °C 34533.8 hPa East 7.7 km/h 14 km/h 39 % 0 mm
16:18 -8.4 °C -16 °C 34533.8 hPa ESE 9 km/h 18.7 km/h 40 % 0 mm
16:23 -8.5 °C -16.3 °C 34533.8 hPa East 10.6 km/h 19.6 km/h 39 % 0 mm
16:28 -8.5 °C -16.3 °C 34533.8 hPa ENE 9.7 km/h 19.6 km/h 39 % 0 mm
16:33 -8.6 °C -16.3 °C 34533.8 hPa East 9.3 km/h 15.6 km/h 39 % 0 mm
16:38 -8.6 °C -16.4 °C 34533.8 hPa East 8.9 km/h 15.6 km/h 39 % 0 mm
16:43 -8.7 °C -16.5 °C 34533.8 hPa ENE 9.3 km/h 16.3 km/h 39 % 0 mm
16:48 -8.9 °C -16.6 °C 34533.8 hPa East 11.4 km/h 16.9 km/h 39 % 0 mm
16:53 -9 °C -16.6 °C 34533.8 hPa East 9.7 km/h 16.9 km/h 40 % 0 mm
16:58 -9.1 °C -16.6 °C 34533.8 hPa ESE 6.8 km/h 16.3 km/h 40 % 0 mm
17:03 -9.1 °C -16.6 °C 34533.8 hPa ESE 8.9 km/h 16.3 km/h 40 % 0 mm
17:08 -9.2 °C -16.8 °C 34533.8 hPa East 8.2 km/h 15 km/h 40 % 0 mm
17:13 -9.3 °C -16.8 °C 34533.8 hPa East 7.2 km/h 14 km/h 40 % 0 mm
17:18 -9.3 °C -16.7 °C 34533.8 hPa East 8.2 km/h 15.6 km/h 41 % 0 mm
17:23 -9.4 °C -16.7 °C 34533.8 hPa ESE 9 km/h 15.6 km/h 41 % 0 mm
17:28 -9.5 °C -16.8 °C 34533.8 hPa East 8.2 km/h 15 km/h 41 % 0 mm
17:33 -9.6 °C -16.8 °C 34533.8 hPa East 6.9 km/h 14 km/h 41 % 0 mm
17:38 -9.6 °C -16.7 °C 34533.8 hPa ESE 6.3 km/h 14 km/h 42 % 0 mm
17:43 -9.7 °C -16.8 °C 34533.8 hPa East 5.5 km/h 12.2 km/h 42 % 0 mm
17:48 -9.8 °C -16.9 °C 34533.8 hPa East 4.2 km/h 9.3 km/h 42 % 0 mm
17:53 -10 °C -17.1 °C 34533.8 hPa ESE 1.6 km/h 6.9 km/h 42 % 0 mm
17:58 -10.1 °C -17 °C 34533.8 hPa Calm     43 % 0 mm
18:03 -10.3 °C -17.1 °C 34533.8 hPa Calm     43 % 0 mm
18:08 -10.6 °C -17.2 °C 34533.8 hPa Calm     44 % 0 mm
18:13 -10.8 °C -17.3 °C 34533.8 hPa Calm     45 % 0 mm
18:18 -11 °C -17.3 °C 34533.8 hPa Calm   2.9 km/h 46 % 0 mm
18:23 -11.3 °C -17.6 °C 34533.8 hPa Calm   2.9 km/h 46 % 0 mm
18:28 -11.4 °C -17.5 °C 34533.8 hPa Calm     47 % 0 mm
18:33 -11.6 °C -17.6 °C 34496.6 hPa Calm     47 % 0 mm
18:38 -11.8 °C -17.7 °C 34496.6 hPa Calm     48 % 0 mm
18:43 -12.1 °C -17.7 °C 34496.6 hPa Calm   5.1 km/h 49 % 0 mm
18:48 -12.2 °C -17.7 °C 34533.8 hPa SW 0.5 km/h 5.1 km/h 50 % 0 mm
18:53 -12.3 °C -17.7 °C 34533.8 hPa SW 0.5 km/h 3.4 km/h 51 % 0 mm
18:58 -12.4 °C -17.7 °C 34533.8 hPa Calm     52 % 0 mm
19:03 -12.6 °C -17.8 °C 34533.8 hPa Calm   3.4 km/h 52 % 0 mm
19:08 -12.7 °C -17.7 °C 34533.8 hPa SW 0.3 km/h 3.4 km/h 53 % 0 mm
19:13 -12.8 °C -17.7 °C 34533.8 hPa SW 0.3 km/h 3.4 km/h 54 % 0 mm
19:19 -12.9 °C -17.7 °C 34533.8 hPa Calm     55 % 0 mm
19:24 -13.1 °C -17.8 °C 34533.8 hPa Calm     55 % 0 mm
19:29 -13.2 °C -17.9 °C 34533.8 hPa SSW 0.3 km/h 5.1 km/h 55 % 0 mm
19:34 -13.3 °C -17.9 °C 34533.8 hPa SSW 0.5 km/h 5.1 km/h 56 % 0 mm
19:39 -13.3 °C -17.9 °C 34533.8 hPa WNW 0.8 km/h 6.9 km/h 56 % 0 mm
19:44 -13.4 °C -17.8 °C 34533.8 hPa NW 0.8 km/h 6.9 km/h 57 % 0 mm
19:49 -13.4 °C -17.6 °C 34533.8 hPa Calm     59 % 0 mm
19:54 -13.6 °C -17.7 °C 34533.8 hPa Calm     59 % 0 mm
19:59 -13.7 °C -17.7 °C 34533.8 hPa Calm     60 % 0 mm
20:04 -13.7 °C -17.9 °C 34533.8 hPa Calm     59 % 0 mm
20:09 -13.9 °C -17.8 °C 34533.8 hPa Calm     61 % 0 mm
20:14 -13.9 °C -17.8 °C 34533.8 hPa Calm     61 % 0 mm
20:19 -14 °C -17.8 °C 34533.8 hPa Calm     62 % 0 mm
20:24 -14.1 °C -17.7 °C 34533.8 hPa Calm     63 % 0 mm
20:29 -14.1 °C -17.7 °C 34533.8 hPa Calm     63 % 0 mm
20:30 -14.1 °C -17.7 °C 34533.8 hPa Calm     63 % 0 mm
20:34 -14.2 °C -17.7 °C 34567.7 hPa Calm     64 % 0 mm
20:40 -14.2 °C -17.7 °C 34567.7 hPa Calm     64 % 0 mm
20:45 -14.3 °C -17.7 °C 34567.7 hPa Calm     65 % 0 mm
20:50 -14.3 °C -17.7 °C 34533.8 hPa Calm     65 % 0 mm
20:55 -14.4 °C -17.8 °C 34533.8 hPa Calm     65 % 0 mm
21:00 -14.4 °C -17.8 °C 34533.8 hPa Calm     65 % 0 mm
21:05 -14.5 °C -17.7 °C 34567.7 hPa Calm     67 % 0 mm
21:10 -14.6 °C -17.7 °C 34567.7 hPa Calm     67 % 0 mm
21:15 -14.6 °C -17.7 °C 34567.7 hPa Calm     68 % 0 mm
21:20 -14.7 °C -17.7 °C 34533.8 hPa Calm     68 % 0 mm
21:25 -14.7 °C -17.7 °C 34533.8 hPa Calm     68 % 0 mm
21:30 -14.8 °C -17.7 °C 34533.8 hPa Calm     69 % 0 mm
21:35 -14.8 °C -17.7 °C 34533.8 hPa Calm     69 % 0 mm
21:40 -14.8 °C -17.7 °C 34533.8 hPa Calm     69 % 0 mm
21:45 -14.9 °C -17.8 °C 34533.8 hPa Calm     69 % 0 mm
21:50 -14.9 °C -17.8 °C 34533.8 hPa Calm     69 % 0 mm
21:55 -15 °C -17.9 °C 34533.8 hPa Calm     69 % 0 mm
22:00 -15 °C -17.8 °C 34533.8 hPa Calm     70 % 0 mm
22:05 -15.1 °C -17.8 °C 34533.8 hPa Calm     71 % 0 mm
22:10 -15.1 °C -17.8 °C 34533.8 hPa Calm     71 % 0 mm
22:15 -15.2 °C -17.8 °C 34533.8 hPa Calm     71 % 0 mm
22:21 -15.2 °C -17.9 °C 34496.6 hPa Calm     71 % 0 mm
22:26 -15.3 °C -17.8 °C 34496.6 hPa Calm     72 % 0 mm
22:31 -15.3 °C -17.8 °C 34496.6 hPa Calm     72 % 0 mm
22:36 -15.3 °C -17.8 °C 34496.6 hPa Calm     73 % 0 mm
22:41 -15.4 °C -17.8 °C 34496.6 hPa Calm     73 % 0 mm
22:46 -15.4 °C -17.9 °C 34496.6 hPa Calm     72 % 0 mm
22:51 -15.4 °C -17.9 °C 34496.6 hPa Calm     73 % 0 mm
22:56 -15.5 °C -17.8 °C 34496.6 hPa Calm     74 % 0 mm
23:01 -15.6 °C -17.9 °C 34496.6 hPa Calm     74 % 0 mm
23:06 -15.6 °C -17.9 °C 34496.6 hPa Calm     74 % 0 mm
23:11 -15.6 °C -17.9 °C 34496.6 hPa Calm     74 % 0 mm
23:16 -15.6 °C -17.8 °C 34496.6 hPa Calm     75 % 0 mm
23:17 -15.6 °C -17.8 °C 34496.6 hPa Calm     75 % 0 mm
23:22 -15.7 °C -17.9 °C 34496.6 hPa Calm     75 % 0 mm
23:27 -15.7 °C -17.9 °C 34496.6 hPa Calm     75 % 0 mm
23:32 -15.7 °C -17.9 °C 34496.6 hPa Calm     75 % 0 mm
23:37 -15.7 °C -17.9 °C 34496.6 hPa Calm     75 % 0 mm
23:42 -15.8 °C -18.1 °C 34496.6 hPa Calm     75 % 0 mm
23:47 -15.9 °C -18 °C 34496.6 hPa Calm     76 % 0 mm
23:52 -15.9 °C -18.1 °C 34496.6 hPa Calm     76 % 0 mm
23:57 -15.9 °C -18.1 °C 34496.6 hPa Calm     76 % 0 mm
Vremenska postaja Senovo
Podatki zbrani iz Weather Underground - 3 mb

Script developed by  Jim McMurry - jmcmurry@mwt.net Adapted for the template by  Wim van der Kuil - Leuven-Template.eu

Vremenski podatki so objavljeni na:

European Weather Network

WeatherCloud

Weather Underground

AWEKAS

HAMweather, WeatherForYou, PWS Weather

MapView

Geostik

Slovenia weather network

Oprema, ki se uporablja:

Vremenski program
Cumulus

Vremenski server
Asus

Cumulus

Asus